createdAt,value
2018-12-30T00:01:41.781Z,74.30
2018-12-30T00:04:10.141Z,74.77
2018-12-30T00:06:40.164Z,74.98
2018-12-30T00:09:08.936Z,74.68
2018-12-30T00:11:37.685Z,74.83
2018-12-30T00:14:06.119Z,75.00
2018-12-30T00:16:34.445Z,74.11
2018-12-30T00:19:02.854Z,73.38
2018-12-30T00:21:31.303Z,73.19
2018-12-30T00:23:59.734Z,73.33
2018-12-30T00:26:30.905Z,73.13
2018-12-30T00:28:59.625Z,72.70
2018-12-30T00:31:28.061Z,72.78
2018-12-30T00:33:56.493Z,73.21
2018-12-30T00:36:24.952Z,72.47
2018-12-30T00:38:53.285Z,72.12
2018-12-30T00:41:21.640Z,72.43
2018-12-30T00:43:50.297Z,71.96
2018-12-30T00:46:18.738Z,72.24
2018-12-30T00:48:47.786Z,71.78
2018-12-30T00:51:17.227Z,72.42
2018-12-30T00:53:45.825Z,71.84
2018-12-30T00:56:14.843Z,71.49
2018-12-30T00:58:43.148Z,72.51
2018-12-30T01:01:11.828Z,71.66
2018-12-30T01:03:40.196Z,71.54
2018-12-30T01:06:08.962Z,72.00
2018-12-30T01:08:37.297Z,71.83
2018-12-30T01:11:06.085Z,71.72
2018-12-30T01:13:35.142Z,72.20
2018-12-30T01:16:03.510Z,71.09
2018-12-30T01:18:31.941Z,71.73
2018-12-30T01:21:00.311Z,71.63
2018-12-30T01:23:28.717Z,70.95
2018-12-30T01:25:57.169Z,71.58
2018-12-30T01:28:25.635Z,70.84
2018-12-30T01:30:53.969Z,70.64
2018-12-30T01:33:22.397Z,69.78
2018-12-30T01:35:50.834Z,69.28
2018-12-30T01:38:19.163Z,69.60
2018-12-30T01:40:48.296Z,68.89
2018-12-30T01:43:16.701Z,68.92
2018-12-30T01:45:45.055Z,68.69
2018-12-30T01:48:14.068Z,68.29
2018-12-30T01:50:42.461Z,67.32
2018-12-30T01:53:10.873Z,67.12
2018-12-30T01:55:39.285Z,67.29
2018-12-30T01:58:07.711Z,66.89
2018-12-30T02:00:36.063Z,66.75
2018-12-30T02:03:04.516Z,66.54
2018-12-30T02:05:33.210Z,66.19
2018-12-30T02:08:01.646Z,65.98
2018-12-30T02:10:29.986Z,66.08
2018-12-30T02:12:58.322Z,65.29
2018-12-30T02:15:27.668Z,65.35
2018-12-30T02:17:56.043Z,65.41
2018-12-30T02:20:24.475Z,65.47
2018-12-30T02:22:52.792Z,65.54
2018-12-30T02:25:21.143Z,65.05
2018-12-30T02:27:49.511Z,64.51
2018-12-30T02:30:18.316Z,64.38
2018-12-30T02:32:46.771Z,64.59
2018-12-30T02:35:16.199Z,64.37
2018-12-30T02:37:44.536Z,63.84
2018-12-30T02:40:13.398Z,63.78
2018-12-30T02:42:41.741Z,64.08
2018-12-30T02:45:10.056Z,63.60
2018-12-30T02:47:38.489Z,63.90
2018-12-30T02:50:07.407Z,64.08
2018-12-30T02:52:35.762Z,64.02
2018-12-30T02:55:05.027Z,63.17
2018-12-30T02:57:33.476Z,64.07
2018-12-30T03:00:02.155Z,63.85
2018-12-30T03:02:30.581Z,63.34
2018-12-30T03:04:59.108Z,63.09
2018-12-30T03:07:27.665Z,63.36
2018-12-30T03:09:56.010Z,63.62
2018-12-30T03:12:24.353Z,63.05
2018-12-30T03:14:52.703Z,62.83
2018-12-30T03:17:21.029Z,63.74
2018-12-30T03:19:49.459Z,63.76
2018-12-30T03:22:17.789Z,63.49
2018-12-30T03:24:46.458Z,62.88
2018-12-30T03:27:15.022Z,63.20
2018-12-30T03:29:43.428Z,62.75
2018-12-30T03:32:11.752Z,63.33
2018-12-30T03:34:40.135Z,61.75
2018-12-30T03:37:08.454Z,62.55
2018-12-30T03:39:36.879Z,62.89
2018-12-30T03:42:05.263Z,62.61
2018-12-30T03:44:33.584Z,62.85
2018-12-30T03:47:01.925Z,62.52
2018-12-30T03:49:30.271Z,63.08
2018-12-30T03:51:58.596Z,62.95
2018-12-30T03:54:26.945Z,62.99
2018-12-30T03:56:55.365Z,63.28
2018-12-30T03:59:23.701Z,63.00
2018-12-30T04:01:52.038Z,62.78
2018-12-30T04:04:20.404Z,63.49
2018-12-30T04:06:48.732Z,63.06
2018-12-30T04:09:17.154Z,62.89
2018-12-30T04:11:45.555Z,62.68
2018-12-30T04:14:14.346Z,62.54
2018-12-30T04:16:42.660Z,61.57
2018-12-30T04:19:11.012Z,62.09
2018-12-30T04:21:39.418Z,61.41
2018-12-30T04:24:07.732Z,61.54
2018-12-30T04:26:36.078Z,61.81
2018-12-30T04:29:04.425Z,61.72
2018-12-30T04:31:32.800Z,62.05
2018-12-30T04:34:01.136Z,62.03
2018-12-30T04:36:29.536Z,61.87
2018-12-30T04:38:57.880Z,62.50
2018-12-30T04:41:26.201Z,61.79
2018-12-30T04:43:54.549Z,62.12
2018-12-30T04:46:22.895Z,61.79
2018-12-30T04:48:51.238Z,61.88
2018-12-30T04:51:19.631Z,61.50
2018-12-30T04:53:47.973Z,62.35
2018-12-30T04:56:16.282Z,62.12
2018-12-30T04:58:45.130Z,61.21
2018-12-30T05:01:14.059Z,61.76
2018-12-30T05:03:42.390Z,61.98
2018-12-30T05:06:10.702Z,61.60
2018-12-30T05:08:39.027Z,60.92
2018-12-30T05:11:07.438Z,61.20
2018-12-30T05:13:35.742Z,61.31
2018-12-30T05:16:04.051Z,61.89
2018-12-30T05:18:32.398Z,61.35
2018-12-30T05:21:00.774Z,61.96
2018-12-30T05:23:29.155Z,62.36
2018-12-30T05:25:57.509Z,61.97
2018-12-30T05:28:25.829Z,61.83
2018-12-30T05:30:54.168Z,62.00
2018-12-30T05:33:22.507Z,61.63
2018-12-30T05:35:51.353Z,61.91
2018-12-30T05:38:20.151Z,62.03
2018-12-30T05:40:48.479Z,61.11
2018-12-30T05:43:16.862Z,60.89
2018-12-30T05:45:45.222Z,61.39
2018-12-30T05:48:14.060Z,60.81
2018-12-30T05:50:42.372Z,60.68
2018-12-30T05:53:10.754Z,60.28
2018-12-30T05:55:39.081Z,60.22
2018-12-30T05:58:07.428Z,60.42
2018-12-30T06:00:35.842Z,60.25
2018-12-30T06:03:04.203Z,59.73
2018-12-30T06:05:32.514Z,60.11
2018-12-30T06:08:00.852Z,59.06
2018-12-30T06:10:29.183Z,59.24
2018-12-30T06:12:57.528Z,59.28
2018-12-30T06:15:25.848Z,59.02
2018-12-30T06:17:54.200Z,59.26
2018-12-30T06:20:22.521Z,59.41
2018-12-30T06:22:50.860Z,59.16
2018-12-30T06:25:19.289Z,59.08
2018-12-30T06:27:47.760Z,59.29
2018-12-30T06:30:16.593Z,60.18
2018-12-30T06:32:45.313Z,60.69
2018-12-30T06:35:14.014Z,60.39
2018-12-30T06:37:42.342Z,60.87
2018-12-30T06:40:11.523Z,60.20
2018-12-30T06:42:40.048Z,59.81
2018-12-30T06:45:08.365Z,59.05
2018-12-30T06:47:36.699Z,59.27
2018-12-30T06:50:06.069Z,58.75
2018-12-30T06:52:34.398Z,59.08
2018-12-30T06:55:02.722Z,58.93
2018-12-30T06:57:31.056Z,59.26
2018-12-30T06:59:59.403Z,59.45
2018-12-30T07:02:27.736Z,59.38
2018-12-30T07:04:56.100Z,59.98
2018-12-30T07:07:24.692Z,60.10
2018-12-30T07:09:53.039Z,59.48
2018-12-30T07:12:21.358Z,59.74
2018-12-30T07:14:49.685Z,59.79
2018-12-30T07:17:17.994Z,59.12
2018-12-30T07:19:46.365Z,59.84
2018-12-30T07:22:14.679Z,59.71
2018-12-30T07:24:43.036Z,60.35
2018-12-30T07:27:11.328Z,60.46
2018-12-30T07:29:39.669Z,60.56
2018-12-30T07:32:08.261Z,60.41
2018-12-30T07:34:36.589Z,59.97
2018-12-30T07:37:04.912Z,60.38
2018-12-30T07:39:33.246Z,60.67
2018-12-30T07:42:01.561Z,60.12
2018-12-30T07:44:29.906Z,60.63
2018-12-30T07:46:58.229Z,60.07
2018-12-30T07:49:26.584Z,60.22
2018-12-30T07:51:54.921Z,60.63
2018-12-30T07:54:23.258Z,59.58
2018-12-30T07:56:51.590Z,58.67
2018-12-30T07:59:19.918Z,59.00
2018-12-30T08:01:48.263Z,59.53
2018-12-30T08:04:16.598Z,60.42
2018-12-30T08:06:44.934Z,59.85
2018-12-30T08:09:13.266Z,60.29
2018-12-30T08:11:41.649Z,60.72
2018-12-30T08:14:10.193Z,59.30
2018-12-30T08:16:38.549Z,59.92
2018-12-30T08:19:06.878Z,59.80
2018-12-30T08:21:35.221Z,59.43
2018-12-30T08:24:04.406Z,59.13
2018-12-30T08:26:32.784Z,58.62
2018-12-30T08:29:01.460Z,58.43
2018-12-30T08:31:29.797Z,57.24
2018-12-30T08:33:58.160Z,57.45
2018-12-30T08:36:28.077Z,57.08
2018-12-30T08:38:56.419Z,57.60
2018-12-30T08:41:24.763Z,58.11
2018-12-30T08:43:53.106Z,57.60
2018-12-30T08:46:21.487Z,57.63
2018-12-30T08:48:49.874Z,57.41
2018-12-30T08:51:18.289Z,57.27
2018-12-30T08:53:46.629Z,57.94
2018-12-30T08:56:15.168Z,57.44
2018-12-30T08:58:43.770Z,57.96
2018-12-30T09:01:12.180Z,57.95
2018-12-30T09:03:40.560Z,57.86
2018-12-30T09:06:09.282Z,58.73
2018-12-30T09:08:37.595Z,58.44
2018-12-30T09:11:05.990Z,58.90
2018-12-30T09:13:34.328Z,58.75
2018-12-30T09:16:02.658Z,58.94
2018-12-30T09:18:30.981Z,59.08
2018-12-30T09:20:59.332Z,59.25
2018-12-30T09:23:27.681Z,58.95
2018-12-30T09:25:56.014Z,58.99
2018-12-30T09:28:24.354Z,58.62
2018-12-30T09:30:52.681Z,59.10
2018-12-30T09:33:21.027Z,58.84
2018-12-30T09:35:49.483Z,58.68
2018-12-30T09:38:17.905Z,58.60
2018-12-30T09:40:46.249Z,58.45
2018-12-30T09:43:14.609Z,58.05
2018-12-30T09:45:42.924Z,58.61
2018-12-30T09:48:11.454Z,58.54
2018-12-30T09:50:39.818Z,58.15
2018-12-30T09:53:08.511Z,58.70
2018-12-30T09:55:37.809Z,58.43
2018-12-30T09:58:06.156Z,58.53
2018-12-30T10:00:34.494Z,58.62
2018-12-30T10:03:02.845Z,58.43
2018-12-30T10:05:31.197Z,58.42
2018-12-30T10:07:59.566Z,58.12
2018-12-30T10:10:27.901Z,58.64
2018-12-30T10:12:56.316Z,58.42
2018-12-30T10:15:25.810Z,58.16
2018-12-30T10:17:54.135Z,58.11
2018-12-30T10:20:22.498Z,58.33
2018-12-30T10:22:50.871Z,58.80
2018-12-30T10:25:21.211Z,58.74
2018-12-30T10:27:49.546Z,58.68
2018-12-30T10:30:17.874Z,58.70
2018-12-30T10:32:46.181Z,58.86
2018-12-30T10:35:14.532Z,59.36
2018-12-30T10:37:42.920Z,58.31
2018-12-30T10:40:11.912Z,58.77
2018-12-30T10:42:40.282Z,59.48
2018-12-30T10:45:09.895Z,58.39
2018-12-30T10:47:38.240Z,58.36
2018-12-30T10:50:06.749Z,57.78
2018-12-30T10:52:35.095Z,58.09
2018-12-30T10:55:03.507Z,58.05
2018-12-30T10:57:31.852Z,63.86
2018-12-30T11:00:00.238Z,62.86
2018-12-30T11:02:29.067Z,60.11
2018-12-30T11:04:58.260Z,56.40
2018-12-30T11:07:27.465Z,55.66
2018-12-30T11:09:56.369Z,55.85
2018-12-30T11:12:25.508Z,57.89
2018-12-30T11:14:54.544Z,56.04
2018-12-30T11:17:22.928Z,57.98
2018-12-30T11:19:51.325Z,55.89
2018-12-30T11:22:19.805Z,56.01
2018-12-30T11:24:48.189Z,56.70
2018-12-30T11:27:16.542Z,57.39
2018-12-30T11:29:44.862Z,58.69
2018-12-30T11:32:15.466Z,58.13
2018-12-30T11:34:43.807Z,56.16
2018-12-30T11:37:12.153Z,56.31
2018-12-30T11:39:40.495Z,57.15
2018-12-30T11:42:09.285Z,55.71
2018-12-30T11:44:37.614Z,55.40
2018-12-30T11:47:05.997Z,55.85
2018-12-30T11:49:34.318Z,56.08
2018-12-30T11:52:02.672Z,56.47
2018-12-30T11:54:31.036Z,56.54
2018-12-30T11:56:59.397Z,57.84
2018-12-30T11:59:27.752Z,58.50
2018-12-30T12:01:56.086Z,57.90
2018-12-30T12:04:24.413Z,58.93
2018-12-30T12:06:52.743Z,59.59
2018-12-30T12:09:21.126Z,59.24
2018-12-30T12:11:49.434Z,59.38
2018-12-30T12:14:17.796Z,60.30
2018-12-30T12:16:46.105Z,59.56
2018-12-30T12:19:14.450Z,60.03
2018-12-30T12:21:42.776Z,60.52
2018-12-30T12:24:11.285Z,60.07
2018-12-30T12:26:39.841Z,60.24
2018-12-30T12:29:08.506Z,59.72
2018-12-30T12:31:36.851Z,60.32
2018-12-30T12:34:05.203Z,60.02
2018-12-30T12:36:33.524Z,59.74
2018-12-30T12:39:01.879Z,59.91
2018-12-30T12:41:30.221Z,60.19
2018-12-30T12:43:58.582Z,60.34
2018-12-30T12:46:26.903Z,60.64
2018-12-30T12:48:55.251Z,60.31
2018-12-30T12:51:23.594Z,60.56
2018-12-30T12:53:51.951Z,60.84
2018-12-30T12:56:20.292Z,60.75
2018-12-30T12:58:48.644Z,60.09
2018-12-30T13:01:16.966Z,60.20
2018-12-30T13:03:45.309Z,60.63
2018-12-30T13:06:13.622Z,60.51
2018-12-30T13:08:41.956Z,60.83
2018-12-30T13:11:10.508Z,60.37
2018-12-30T13:13:38.832Z,59.60
2018-12-30T13:16:07.309Z,59.69
2018-12-30T13:18:35.652Z,60.45
2018-12-30T13:21:03.987Z,59.99
2018-12-30T13:23:32.327Z,60.43
2018-12-30T13:26:00.649Z,60.36
2018-12-30T13:28:28.974Z,61.27
2018-12-30T13:30:57.287Z,61.33
2018-12-30T13:33:25.612Z,60.92
2018-12-30T13:35:53.945Z,60.41
2018-12-30T13:38:28.231Z,61.25
2018-12-30T13:40:52.644Z,60.98
2018-12-30T13:43:20.978Z,61.16
2018-12-30T13:45:49.332Z,60.94
2018-12-30T13:48:17.679Z,61.32
2018-12-30T13:50:46.039Z,60.80
2018-12-30T13:53:14.367Z,61.32
2018-12-30T13:55:42.705Z,61.60
2018-12-30T13:58:11.241Z,61.37
2018-12-30T14:00:39.590Z,61.55
2018-12-30T14:03:08.213Z,62.18
2018-12-30T14:05:36.545Z,61.59
2018-12-30T14:08:04.923Z,61.40
2018-12-30T14:10:33.263Z,61.49
2018-12-30T14:13:01.921Z,61.29
2018-12-30T14:15:30.475Z,60.97
2018-12-30T14:17:59.084Z,61.16
2018-12-30T14:20:27.466Z,61.31
2018-12-30T14:22:55.798Z,61.56
2018-12-30T14:25:24.167Z,62.31
2018-12-30T14:27:52.492Z,61.89
2018-12-30T14:30:20.867Z,62.81
2018-12-30T14:32:49.175Z,63.34
2018-12-30T14:35:17.531Z,62.44
2018-12-30T14:37:45.862Z,61.51
2018-12-30T14:40:14.213Z,61.62
2018-12-30T14:42:42.557Z,61.79
2018-12-30T14:45:12.057Z,62.07
2018-12-30T14:47:40.452Z,61.55
2018-12-30T14:50:10.688Z,62.11
2018-12-30T14:52:39.093Z,61.57
2018-12-30T14:55:08.028Z,62.48
2018-12-30T14:57:36.346Z,62.11
2018-12-30T15:00:06.544Z,61.56
2018-12-30T15:02:35.384Z,62.06
2018-12-30T15:05:03.961Z,61.89
2018-12-30T15:07:32.321Z,61.66
2018-12-30T15:10:00.660Z,61.51
2018-12-30T15:12:28.973Z,61.88
2018-12-30T15:14:57.327Z,61.84
2018-12-30T15:17:25.645Z,62.25
2018-12-30T15:19:53.963Z,62.35
2018-12-30T15:22:22.279Z,61.82
2018-12-30T15:24:50.591Z,62.38
2018-12-30T15:27:18.934Z,61.55
2018-12-30T15:29:47.250Z,62.20
2018-12-30T15:32:15.619Z,61.91
2018-12-30T15:34:43.967Z,62.13
2018-12-30T15:37:12.344Z,62.09
2018-12-30T15:39:40.709Z,62.39
2018-12-30T15:42:09.267Z,62.73
2018-12-30T15:44:37.601Z,62.24
2018-12-30T15:47:05.921Z,62.62
2018-12-30T15:49:34.306Z,62.70
2018-12-30T15:52:02.692Z,62.09
2018-12-30T15:54:31.060Z,63.04
2018-12-30T15:56:59.403Z,63.33
2018-12-30T15:59:27.778Z,62.81
2018-12-30T16:01:57.059Z,62.59
2018-12-30T16:04:25.548Z,63.54
2018-12-30T16:06:53.996Z,63.07
2018-12-30T16:09:22.338Z,63.04
2018-12-30T16:11:50.695Z,63.05
2018-12-30T16:14:18.993Z,63.67
2018-12-30T16:16:47.378Z,63.68
2018-12-30T16:19:15.805Z,63.42
2018-12-30T16:21:44.175Z,63.90
2018-12-30T16:24:12.693Z,64.68
2018-12-30T16:26:41.038Z,63.98
2018-12-30T16:29:09.361Z,64.96
2018-12-30T16:31:37.682Z,64.83
2018-12-30T16:34:06.051Z,65.53
2018-12-30T16:36:34.366Z,64.67
2018-12-30T16:39:02.770Z,64.69
2018-12-30T16:41:31.137Z,64.59
2018-12-30T16:43:59.473Z,64.48
2018-12-30T16:46:27.790Z,64.66
2018-12-30T16:48:56.228Z,64.41
2018-12-30T16:51:24.589Z,64.54
2018-12-30T16:53:52.942Z,65.85
2018-12-30T16:56:21.265Z,65.43
2018-12-30T16:58:49.603Z,64.68
2018-12-30T17:01:17.933Z,65.30
2018-12-30T17:03:46.279Z,64.28
2018-12-30T17:06:14.962Z,65.08
2018-12-30T17:08:43.277Z,65.78
2018-12-30T17:11:11.620Z,65.67
2018-12-30T17:13:40.046Z,65.71
2018-12-30T17:16:11.506Z,65.95
2018-12-30T17:18:42.961Z,65.56
2018-12-30T17:21:11.272Z,66.29
2018-12-30T17:23:39.672Z,66.87
2018-12-30T17:26:07.999Z,66.41
2018-12-30T17:28:36.333Z,66.58
2018-12-30T17:31:04.708Z,66.66
2018-12-30T17:33:33.020Z,67.41
2018-12-30T17:36:01.390Z,67.32
2018-12-30T17:38:30.194Z,67.62
2018-12-30T17:41:01.686Z,66.28
2018-12-30T17:43:28.991Z,66.27
2018-12-30T17:45:57.346Z,66.25
2018-12-30T17:48:25.712Z,65.97
2018-12-30T17:50:54.029Z,66.67
2018-12-30T17:53:22.353Z,65.62
2018-12-30T17:55:51.131Z,67.29
2018-12-30T17:58:19.516Z,66.41
2018-12-30T18:00:47.850Z,66.34
2018-12-30T18:03:16.686Z,66.10
2018-12-30T18:05:45.069Z,66.83
2018-12-30T18:08:13.677Z,66.88
2018-12-30T18:10:42.007Z,66.12
2018-12-30T18:13:10.320Z,66.32
2018-12-30T18:15:38.782Z,66.12
2018-12-30T18:18:07.158Z,65.96
2018-12-30T18:20:35.585Z,65.92
2018-12-30T18:23:03.899Z,66.62
2018-12-30T18:25:32.241Z,66.92
2018-12-30T18:28:00.554Z,66.71
2018-12-30T18:30:28.899Z,66.60
2018-12-30T18:32:57.271Z,66.42
2018-12-30T18:35:25.586Z,66.66
2018-12-30T18:37:53.962Z,66.46
2018-12-30T18:40:22.348Z,66.47
2018-12-30T18:42:50.758Z,67.60
2018-12-30T18:45:19.342Z,67.64
2018-12-30T18:47:47.714Z,67.19
2018-12-30T18:50:16.932Z,67.68
2018-12-30T18:52:45.388Z,68.68
2018-12-30T18:55:15.852Z,67.88
2018-12-30T18:57:44.180Z,67.20
2018-12-30T19:00:12.552Z,67.66
2018-12-30T19:02:40.980Z,67.74
2018-12-30T19:05:09.379Z,67.53
2018-12-30T19:07:37.725Z,67.30
2018-12-30T19:10:06.601Z,67.37
2018-12-30T19:12:34.930Z,67.48
2018-12-30T19:15:03.885Z,67.59
2018-12-30T19:17:32.232Z,67.50
2018-12-30T19:20:00.558Z,67.54
2018-12-30T19:22:28.909Z,67.44
2018-12-30T19:24:57.226Z,67.78
2018-12-30T19:27:25.600Z,67.49
2018-12-30T19:29:53.934Z,67.64
2018-12-30T19:32:22.264Z,68.08
2018-12-30T19:34:50.670Z,67.82
2018-12-30T19:37:19.020Z,67.71
2018-12-30T19:39:47.365Z,67.84
2018-12-30T19:42:16.016Z,68.36
2018-12-30T19:44:44.357Z,68.27
2018-12-30T19:47:12.866Z,68.13
2018-12-30T19:50:06.921Z,68.70
2018-12-30T19:52:35.337Z,67.96
2018-12-30T19:55:03.923Z,68.21
2018-12-30T19:57:32.297Z,68.68
2018-12-30T20:00:00.971Z,68.68
2018-12-30T20:02:29.292Z,68.26
2018-12-30T20:04:57.650Z,68.13
2018-12-30T20:07:26.170Z,67.71
2018-12-30T20:09:54.514Z,68.17
2018-12-30T20:12:23.762Z,67.66
2018-12-30T20:14:52.189Z,67.95
2018-12-30T20:17:20.523Z,68.58
2018-12-30T20:19:48.888Z,68.75
2018-12-30T20:22:17.260Z,68.44
2018-12-30T20:24:45.638Z,69.37
2018-12-30T20:27:14.311Z,69.67
2018-12-30T20:29:42.605Z,69.90
2018-12-30T20:32:10.943Z,69.02
2018-12-30T20:34:39.297Z,69.72
2018-12-30T20:37:07.626Z,69.02
2018-12-30T20:39:35.980Z,69.96
2018-12-30T20:42:04.385Z,69.94
2018-12-30T20:44:32.739Z,69.96
2018-12-30T20:47:01.072Z,70.29
2018-12-30T20:49:29.433Z,70.06
2018-12-30T20:51:57.773Z,70.02
2018-12-30T20:54:26.520Z,70.51
2018-12-30T20:56:54.869Z,71.02
2018-12-30T20:59:23.258Z,70.08
2018-12-30T21:01:51.584Z,70.39
2018-12-30T21:04:19.909Z,70.37
2018-12-30T21:06:48.446Z,70.25
2018-12-30T21:09:17.105Z,70.72
2018-12-30T21:11:45.404Z,71.42
2018-12-30T21:14:14.303Z,71.32
2018-12-30T21:16:42.617Z,71.74
2018-12-30T21:19:10.977Z,72.20
2018-12-30T21:21:39.298Z,72.66
2018-12-30T21:24:07.647Z,72.71
2018-12-30T21:26:35.957Z,73.05
2018-12-30T21:29:04.354Z,73.15
2018-12-30T21:31:32.686Z,73.31
2018-12-30T21:34:01.037Z,73.90
2018-12-30T21:36:29.404Z,73.69
2018-12-30T21:38:57.762Z,73.93
2018-12-30T21:41:26.752Z,74.30
2018-12-30T21:43:55.090Z,73.27
2018-12-30T21:46:23.423Z,73.62
2018-12-30T21:48:51.925Z,73.72
2018-12-30T21:51:20.297Z,73.83
2018-12-30T21:53:48.851Z,72.91
2018-12-30T21:56:17.191Z,73.23
2018-12-30T21:58:45.513Z,73.20
2018-12-30T22:01:14.072Z,72.49
2018-12-30T22:03:42.942Z,72.84
2018-12-30T22:06:11.253Z,72.61
2018-12-30T22:08:39.565Z,72.54
2018-12-30T22:11:07.918Z,71.99
2018-12-30T22:13:36.316Z,72.31
2018-12-30T22:16:04.731Z,72.51
2018-12-30T22:18:33.066Z,72.78
2018-12-30T22:21:01.405Z,72.90
2018-12-30T22:23:29.831Z,72.79
2018-12-30T22:25:58.165Z,73.04
2018-12-30T22:28:26.490Z,72.72
2018-12-30T22:30:54.847Z,72.64
2018-12-30T22:33:23.186Z,72.86
2018-12-30T22:35:51.522Z,72.71
2018-12-30T22:38:19.872Z,73.51
2018-12-30T22:40:48.235Z,73.37
2018-12-30T22:43:16.553Z,73.05
2018-12-30T22:45:44.923Z,73.35
2018-12-30T22:48:13.930Z,73.56
2018-12-30T22:50:42.304Z,73.25
2018-12-30T22:53:10.681Z,73.15
2018-12-30T22:55:39.049Z,73.60
2018-12-30T22:58:07.430Z,73.39
2018-12-30T23:00:40.130Z,73.15
2018-12-30T23:03:08.459Z,72.87
2018-12-30T23:05:36.817Z,73.04
2018-12-30T23:08:05.227Z,72.98
2018-12-30T23:10:33.607Z,72.74
2018-12-30T23:13:01.949Z,72.49
2018-12-30T23:15:30.366Z,73.39
2018-12-30T23:17:58.756Z,73.02
2018-12-30T23:20:27.129Z,73.73
2018-12-30T23:22:55.501Z,73.95
2018-12-30T23:25:23.883Z,73.64
2018-12-30T23:27:53.087Z,74.42
2018-12-30T23:30:21.405Z,74.11
2018-12-30T23:32:49.813Z,74.60
2018-12-30T23:35:18.535Z,73.90
2018-12-30T23:37:46.858Z,74.00
2018-12-30T23:40:15.955Z,74.65
2018-12-30T23:42:44.406Z,74.69
2018-12-30T23:45:12.778Z,74.10
2018-12-30T23:47:41.122Z,74.50
2018-12-30T23:50:09.573Z,75.05
2018-12-30T23:52:37.944Z,74.72
2018-12-30T23:55:06.463Z,74.83
2018-12-30T23:57:34.810Z,74.75
